createdAt,value
2022-09-28T00:07:42.212Z,75.11
2022-09-28T00:16:12.128Z,75.21
2022-09-28T00:24:35.224Z,75.06
2022-09-28T00:32:58.441Z,75.09
2022-09-28T00:41:21.474Z,75.11
2022-09-28T00:49:51.165Z,75.36
2022-09-28T00:58:27.614Z,75.27
2022-09-28T01:06:51.528Z,75.22
2022-09-28T01:15:15.756Z,75.35
2022-09-28T01:24:30.221Z,75.39
2022-09-28T01:33:07.381Z,75.24
2022-09-28T01:41:32.083Z,75.56
2022-09-28T01:50:08.552Z,75.55
2022-09-28T01:58:43.789Z,75.60
2022-09-28T02:07:08.994Z,75.57
2022-09-28T02:15:43.211Z,75.45
2022-09-28T02:24:22.657Z,75.53
2022-09-28T02:32:50.716Z,75.55
2022-09-28T02:41:32.487Z,75.58
2022-09-28T02:50:10.795Z,75.68
2022-09-28T02:58:42.931Z,75.57
2022-09-28T03:07:18.597Z,75.49
2022-09-28T03:15:46.437Z,75.68
2022-09-28T03:24:11.608Z,75.91
2022-09-28T03:32:34.609Z,75.76
2022-09-28T03:41:00.006Z,75.80
2022-09-28T03:49:26.542Z,75.85
2022-09-28T03:57:58.465Z,75.83
2022-09-28T04:06:22.471Z,75.87
2022-09-28T04:14:45.865Z,75.89
2022-09-28T04:23:08.939Z,76.09
2022-09-28T04:31:39.203Z,76.01
2022-09-28T04:40:02.223Z,76.15
2022-09-28T04:48:28.049Z,76.27
2022-09-28T04:57:21.127Z,76.11
2022-09-28T05:05:45.317Z,76.23
2022-09-28T05:14:32.825Z,76.31
2022-09-28T05:22:56.022Z,76.14
2022-09-28T05:31:19.389Z,76.43
2022-09-28T05:40:09.166Z,76.19
2022-09-28T05:48:32.142Z,76.31
2022-09-28T05:56:55.275Z,76.37
2022-09-28T06:05:18.645Z,76.39
2022-09-28T06:13:42.244Z,76.33
2022-09-28T06:22:05.393Z,76.34
2022-09-28T06:30:39.225Z,76.48
2022-09-28T06:39:06.482Z,76.54
2022-09-28T06:47:33.390Z,76.42
2022-09-28T06:56:21.339Z,76.67
2022-09-28T07:04:44.822Z,76.55
2022-09-28T07:13:49.810Z,76.47
2022-09-28T07:22:19.894Z,76.56
2022-09-28T07:30:46.855Z,76.76
2022-09-28T07:39:15.059Z,77.00
2022-09-28T07:47:39.059Z,77.19
2022-09-28T07:56:21.087Z,77.26
2022-09-28T08:04:50.908Z,77.16
2022-09-28T08:13:15.506Z,77.27
2022-09-28T08:21:50.872Z,77.28
2022-09-28T08:30:15.055Z,77.41
2022-09-28T08:38:58.191Z,77.41
2022-09-28T08:48:24.061Z,77.30
2022-09-28T08:57:23.014Z,77.72
2022-09-28T09:06:08.951Z,77.61
2022-09-28T09:15:27.020Z,77.58
2022-09-28T09:24:03.852Z,77.63
2022-09-28T09:32:47.629Z,77.81
2022-09-28T09:41:26.387Z,77.58
2022-09-28T09:50:30.113Z,77.43
2022-09-28T09:59:01.667Z,77.48
2022-09-28T10:07:54.103Z,77.37
2022-09-28T10:16:19.953Z,77.10
2022-09-28T10:24:56.899Z,77.08
2022-09-28T10:33:34.870Z,76.87
2022-09-28T10:42:05.132Z,77.05
2022-09-28T10:50:28.574Z,77.11
2022-09-28T10:59:00.602Z,76.73
2022-09-28T11:07:46.739Z,76.75
2022-09-28T11:16:23.119Z,76.87
2022-09-28T11:24:46.552Z,76.73
2022-09-28T11:33:20.683Z,76.78
2022-09-28T11:42:24.426Z,76.81
2022-09-28T11:50:57.787Z,77.02
2022-09-28T11:59:42.764Z,76.78
2022-09-28T12:08:33.276Z,76.68
2022-09-28T12:17:08.194Z,76.43
2022-09-28T12:25:41.303Z,76.47
2022-09-28T12:34:05.690Z,76.45
2022-09-28T12:42:31.865Z,76.03
2022-09-28T12:51:13.652Z,76.22
2022-09-28T13:00:02.340Z,76.16
2022-09-28T13:08:37.406Z,76.06
2022-09-28T13:17:18.848Z,75.98
2022-09-28T13:25:49.694Z,75.89
2022-09-28T13:34:22.644Z,75.86
2022-09-28T13:42:51.078Z,75.85
2022-09-28T13:51:42.307Z,75.67
2022-09-28T14:00:11.124Z,75.74
2022-09-28T14:09:05.243Z,75.87
2022-09-28T14:17:30.581Z,75.64
2022-09-28T14:26:11.426Z,75.80
2022-09-28T14:34:38.480Z,75.86
2022-09-28T14:43:39.227Z,75.91
2022-09-28T14:52:04.158Z,75.82
2022-09-28T15:00:31.941Z,75.48
2022-09-28T15:08:55.246Z,75.79
2022-09-28T15:17:26.532Z,75.65
2022-09-28T15:25:52.569Z,75.59
2022-09-28T15:34:49.691Z,75.53
2022-09-28T15:43:33.006Z,75.64
2022-09-28T15:52:05.568Z,75.62
2022-09-28T16:00:31.946Z,75.38
2022-09-28T16:08:54.869Z,75.43
2022-09-28T16:17:33.679Z,75.16
2022-09-28T16:26:03.169Z,75.35
2022-09-28T16:34:27.344Z,75.28
2022-09-28T16:42:51.341Z,75.25
2022-09-28T16:51:22.597Z,75.12
2022-09-28T16:59:45.467Z,75.12
2022-09-28T17:08:13.515Z,74.91
2022-09-28T17:17:06.218Z,74.91
2022-09-28T17:25:22.860Z,74.79
2022-09-28T17:33:47.443Z,75.00
2022-09-28T17:42:10.845Z,74.95
2022-09-28T17:50:36.339Z,74.87
2022-09-28T17:59:03.434Z,74.79
2022-09-28T18:07:28.927Z,74.94
2022-09-28T18:15:53.365Z,74.89
2022-09-28T18:24:16.759Z,74.82
2022-09-28T18:32:40.609Z,74.91
2022-09-28T18:41:08.607Z,74.90
2022-09-28T18:49:33.741Z,74.88
2022-09-28T18:57:56.875Z,75.15
2022-09-28T19:06:20.248Z,74.97
2022-09-28T19:14:43.724Z,75.07
2022-09-28T19:23:06.735Z,74.79
2022-09-28T19:31:31.379Z,74.80
2022-09-28T19:39:54.322Z,75.14
2022-09-28T19:48:17.278Z,74.99
2022-09-28T19:56:41.581Z,74.91
2022-09-28T20:05:05.407Z,75.12
2022-09-28T20:13:36.735Z,74.87
2022-09-28T20:22:03.272Z,75.02
2022-09-28T20:30:26.891Z,75.00
2022-09-28T20:38:51.948Z,75.26
2022-09-28T20:47:15.518Z,75.15
2022-09-28T20:55:38.921Z,74.95
2022-09-28T21:04:03.805Z,75.11
2022-09-28T21:12:28.985Z,75.15
2022-09-28T21:20:51.908Z,75.15
2022-09-28T21:29:15.766Z,75.11
2022-09-28T21:37:38.818Z,75.15
2022-09-28T21:46:03.134Z,75.38
2022-09-28T21:54:26.239Z,75.19
2022-09-28T22:02:51.160Z,75.11
2022-09-28T22:11:20.356Z,74.92
2022-09-28T22:19:45.458Z,75.08
2022-09-28T22:28:08.694Z,75.10
2022-09-28T22:36:32.571Z,74.98
2022-09-28T22:44:55.477Z,75.07
2022-09-28T22:53:19.420Z,75.18
2022-09-28T23:01:42.412Z,75.12
2022-09-28T23:10:06.825Z,75.21
2022-09-28T23:18:32.934Z,75.31
2022-09-28T23:26:56.175Z,75.30
2022-09-28T23:35:19.594Z,75.55
2022-09-28T23:43:42.508Z,75.51
2022-09-28T23:52:05.425Z,75.37
